Cotes De Bretagne — FW3973 — position and weather

sailwx.info

Track history (hours):
 
Tides and Currents Weather Stations Pressure Air Temp Water Temp Dewpoint Dewpoint Depression Visibility Wind Speed Wind Dir Waves Ship Positions

Cotes De Bretagne

Last reported at 2016-Sep-29 23:33 UTC. Time now 2016-Oct-01 12:11 UTC.
Position N 48°37' W 004°46'.

Length 75 m; draft 3.8 m.

Type: Dredging. MMSI: 227003850.

Date/timePositionNaut miles runAvg speedWind from/ knotsBaromVisibWave heightAir tempDewpointWater temp
2016-Sep-29 23:33N 48°37' W 004°46'2110.3
2016-Sep-29 21:33N 48°16' W 004°45'1010.2
2016-Sep-29 20:34N 48°06' W 004°46'9 9.0
2016-Sep-29 19:33N 47°58' W 004°40'24 7.7
2016-Sep-29 16:24N 47°49' W 004°07'7 7.9
2016-Sep-29 15:33N 47°56' W 004°08'5 0.7
2016-Sep-29 08:32N 47°51' W 004°06'0 0.0
2016-Sep-29 07:33N 47°51' W 004°06'16 2.3
2016-Sep-29 00:32N 47°50' W 004°31'21 7.1
2016-Sep-28 21:33N 48°09' W 004°45'19 9.5
2016-Sep-28 19:33N 48°28' W 004°50'28 8.9
2016-Sep-28 16:24N 48°45' W 004°16'7 7.8
2016-Sep-28 15:28N 48°47' W 004°05'9 2.9
2016-Sep-28 12:22N 48°43' W 003°53'33 8.6
2016-Sep-28 08:33N 48°38' W 004°42'41 8.2
2016-Sep-28 03:33N 47°58' W 004°41'10 9.6
2016-Sep-28 02:33N 47°50' W 004°31'10 9.9
2016-Sep-28 01:34N 47°44' W 004°20'20 9.7
2016-Sep-27 23:31N 47°36' W 003°53'3910.0
2016-Sep-27 19:33N 47°20' W 002°60'47 9.4
2016-Sep-27 14:33N 47°15' W 001°51'9 8.7
2016-Sep-27 13:31N 47°12' W 001°38'9 2.9
2016-Sep-27 10:32N 47°14' W 001°50'22 2.2
2016-Sep-27 00:32N 47°06' W 002°20'17 4.1
2016-Sep-26 20:27N 46°50' W 002°22'10 9.1
2016-Sep-26 19:23N 46°42' W 002°12'34 8.7
2016-Sep-26 15:30N 46°14' W 001°45'17 2.5
2016-Sep-26 08:33N 46°29' W 001°59'49 8.2
2016-Sep-26 02:33N 47°18' W 002°09'1010.3
2016-Sep-26 01:33N 47°17' W 001°54'9 8.9
2016-Sep-26 00:34N 47°12' W 001°42'4 1.3
2016-Sep-25 21:34N 47°13' W 001°48'23 5.6
2016-Sep-25 17:32N 47°06' W 002°20'0 0.1
2016-Sep-25 16:33N 47°06' W 002°20'0 0.0
2016-Sep-25 15:32N 47°06' W 002°20'0 0.0
2016-Sep-25 14:30N 47°06' W 002°20'0 0.0
2016-Sep-25 12:30N 47°06' W 002°20'0 0.0
2016-Sep-25 11:32N 47°06' W 002°20'5 4.8
2016-Sep-25 10:30N 47°03' W 002°25'19 6.2
2016-Sep-25 07:28N 46°45' W 002°16'21 7.3
2016-Sep-25 04:33N 46°28' W 001°58'28 6.9
2016-Sep-25 00:33N 46°05' W 001°36'0 0.1
2016-Sep-24 22:31N 46°05' W 001°36'10 9.4
2016-Sep-24 21:29N 46°11' W 001°47'2110.6
2016-Sep-24 19:33N 46°25' W 002°09'1110.9
2016-Sep-24 18:33N 46°33' W 002°20'1111.1
2016-Sep-24 17:33N 46°40' W 002°32'1010.5
2016-Sep-24 16:33N 46°47' W 002°44'2110.4
2016-Sep-24 14:30N 47°01' W 003°08'2010.1
2016-Sep-24 12:33N 47°14' W 003°29'2110.3
2016-Sep-24 10:31N 47°28' W 003°53'9 9.7
2016-Sep-24 09:33N 47°34' W 004°03'51 8.6
2016-Sep-24 03:33N 48°16' W 004°46'1010.0
2016-Sep-24 02:34N 48°26' W 004°50'1010.1
2016-Sep-24 01:33N 48°36' W 004°48'1110.6
2016-Sep-24 00:33N 48°41' W 004°34'55 3.6
2016-Sep-23 09:04N 48°55' W 003°13'16 2.7
2016-Sep-23 03:07N 48°49' W 002°49'  
Track history (hours):
 
Tides and Currents Weather Stations Pressure Air Temp Water Temp Dewpoint Dewpoint Depression Visibility Wind Speed Wind Dir Waves Ship Positions

Cotes De Bretagne

Last reported at 2016-Sep-29 23:33 UTC. Time now 2016-Oct-01 12:11 UTC.
Position N 48°37' W 004°46'.

Length 75 m; draft 3.8 m.

Type: Dredging. MMSI: 227003850.

Date/timePositionNaut miles runAvg speedWind from/ knotsBaromVisibWave heightAir tempDewpointWater temp
2016-Sep-29 23:33N 48°37' W 004°46'2110.3
2016-Sep-29 21:33N 48°16' W 004°45'1010.2
2016-Sep-29 20:34N 48°06' W 004°46'9 9.0
2016-Sep-29 19:33N 47°58' W 004°40'24 7.7
2016-Sep-29 16:24N 47°49' W 004°07'7 7.9
2016-Sep-29 15:33N 47°56' W 004°08'5 0.7
2016-Sep-29 08:32N 47°51' W 004°06'0 0.0
2016-Sep-29 07:33N 47°51' W 004°06'16 2.3
2016-Sep-29 00:32N 47°50' W 004°31'21 7.1
2016-Sep-28 21:33N 48°09' W 004°45'19 9.5
2016-Sep-28 19:33N 48°28' W 004°50'28 8.9
2016-Sep-28 16:24N 48°45' W 004°16'7 7.8
2016-Sep-28 15:28N 48°47' W 004°05'9 2.9
2016-Sep-28 12:22N 48°43' W 003°53'33 8.6
2016-Sep-28 08:33N 48°38' W 004°42'41 8.2
2016-Sep-28 03:33N 47°58' W 004°41'10 9.6
2016-Sep-28 02:33N 47°50' W 004°31'10 9.9
2016-Sep-28 01:34N 47°44' W 004°20'20 9.7
2016-Sep-27 23:31N 47°36' W 003°53'3910.0
2016-Sep-27 19:33N 47°20' W 002°60'47 9.4
2016-Sep-27 14:33N 47°15' W 001°51'9 8.7
2016-Sep-27 13:31N 47°12' W 001°38'9 2.9
2016-Sep-27 10:32N 47°14' W 001°50'22 2.2
2016-Sep-27 00:32N 47°06' W 002°20'17 4.1
2016-Sep-26 20:27N 46°50' W 002°22'10 9.1
2016-Sep-26 19:23N 46°42' W 002°12'34 8.7
2016-Sep-26 15:30N 46°14' W 001°45'17 2.5
2016-Sep-26 08:33N 46°29' W 001°59'49 8.2
2016-Sep-26 02:33N 47°18' W 002°09'1010.3
2016-Sep-26 01:33N 47°17' W 001°54'9 8.9
2016-Sep-26 00:34N 47°12' W 001°42'4 1.3
2016-Sep-25 21:34N 47°13' W 001°48'23 5.6
2016-Sep-25 17:32N 47°06' W 002°20'0 0.1
2016-Sep-25 16:33N 47°06' W 002°20'0 0.0
2016-Sep-25 15:32N 47°06' W 002°20'0 0.0
2016-Sep-25 14:30N 47°06' W 002°20'0 0.0
2016-Sep-25 12:30N 47°06' W 002°20'0 0.0
2016-Sep-25 11:32N 47°06' W 002°20'5 4.8
2016-Sep-25 10:30N 47°03' W 002°25'19 6.2
2016-Sep-25 07:28N 46°45' W 002°16'21 7.3
2016-Sep-25 04:33N 46°28' W 001°58'28 6.9
2016-Sep-25 00:33N 46°05' W 001°36'0 0.1
2016-Sep-24 22:31N 46°05' W 001°36'10 9.4
2016-Sep-24 21:29N 46°11' W 001°47'2110.6
2016-Sep-24 19:33N 46°25' W 002°09'1110.9
2016-Sep-24 18:33N 46°33' W 002°20'1111.1
2016-Sep-24 17:33N 46°40' W 002°32'1010.5
2016-Sep-24 16:33N 46°47' W 002°44'2110.4
2016-Sep-24 14:30N 47°01' W 003°08'2010.1
2016-Sep-24 12:33N 47°14' W 003°29'2110.3
2016-Sep-24 10:31N 47°28' W 003°53'9 9.7
2016-Sep-24 09:33N 47°34' W 004°03'51 8.6
2016-Sep-24 03:33N 48°16' W 004°46'1010.0
2016-Sep-24 02:34N 48°26' W 004°50'1010.1
2016-Sep-24 01:33N 48°36' W 004°48'1110.6
2016-Sep-24 00:33N 48°41' W 004°34'55 3.6
2016-Sep-23 09:04N 48°55' W 003°13'16 2.7
2016-Sep-23 03:07N 48°49' W 002°49'  

Dump ship's entire track history